Little Genesee, New York
Current Conditions -  °F | °C
As of 12:56 AM on Sunday 21 Dec 2014 (Local Time) from KELZ Reporting Station
Overcast Overcast  
Wind Chill: 17°   Ceiling: 700
Heat Index: 24°   Visibility: 10mi
Dew Point: 20°   Wind: 6mph
Humidity: 84%   Direction: 300°WNW
Pressure: 30.19"   Gusts: NA
Location:  42.03°N, 78.21°W
Report Text: KELZ 210556Z AUTO 30005KT 10SM OVC007 M04/M07 A3019 RMK AO2 SLP253 T10441067 11044 21050 58004
Loading
Personal Weather Stations






























Interactive Weather Map New forecast layout! Learn more

10-Day Weather Forecast

Advertisements
Track Severe Weather on mobile